Time;durP1;ratioP1;P1;durP2;ratioP2;P2;SDS_P1;SDS_P2;PMS_P1;PMS_P2;Temp;Humidity;BMP_temperature;BMP_pressure;BME280_temperature;BME280_humidity;BME280_pressure;Samples;Min_cycle;Max_cycle;Signal;HPM_P1;HPM_P2
2022/08/25 00:00:43;;;;;;;;;;;;;;;21.38;100.00;100481.75;3054745;19;1040;-49
2022/08/25 00:01:47;;;;;;;;;;;;;;;21.38;100.00;100473.63;3055508;19;928;-48
2022/08/25 00:02:51;;;;;;;;;;;;;;;21.39;100.00;100470.72;3054465;19;959;-49
2022/08/25 00:03:57;;;;;;;;;;;;;;;21.39;100.00;100467.16;3054273;19;1049;-49
2022/08/25 00:05:02;;;;;;;;;;;;;;;21.40;100.00;100472.44;3055442;19;1266;-49
2022/08/25 00:06:05;;;;;;;;;;;;;;;21.41;100.00;100462.44;3055164;19;1242;-49
2022/08/25 00:07:09;;;;;;;;;;;;;;;21.40;100.00;100466.16;3054946;19;1048;-52
2022/08/25 00:08:11;;;;;;;;;;;;;;;21.41;100.00;100462.44;3055055;19;1027;-48
2022/08/25 00:09:16;;;;;;;;;;;;;;;21.41;100.00;100462.44;3055265;19;1148;-49
2022/08/25 00:10:19;;;;;;;;;;;;;;;21.42;100.00;100456.84;3055197;19;980;-49
2022/08/25 00:11:24;;;;;;;;;;;;;;;21.42;100.00;100458.69;3055311;19;1004;-49
2022/08/25 00:12:26;;;;;;;;;;;;;;;21.39;100.00;100454.44;3054821;19;941;-49
2022/08/25 00:13:31;;;;;;;;;;;;;;;21.41;100.00;100451.56;3055333;19;992;-50
2022/08/25 00:14:34;;;;;;;;;;;;;;;21.41;100.00;100449.72;3048679;19;937;-49
2022/08/25 00:15:40;;;;;;;;;;;;;;;21.43;100.00;100452.25;3047249;19;960;-50
2022/08/25 00:16:42;;;;;;;;;;;;;;;21.43;100.00;100454.97;3046218;19;1359;-49
2022/08/25 00:17:46;;;;;;;;;;;;;;;21.43;100.00;100444.13;3049188;19;920;-49
2022/08/25 00:18:53;;;;;;;;;;;;;;;21.42;100.00;100445.13;3049551;19;1846;-49
2022/08/25 00:19:57;;;;;;;;;;;;;;;21.41;100.00;100447.00;3050371;19;1176;-49
2022/08/25 00:20:59;;;;;;;;;;;;;;;21.41;100.00;100444.28;3050425;19;1181;-49
2022/08/25 00:22:04;;;;;;;;;;;;;;;21.43;100.00;100433.25;3054632;19;1303;-48
2022/08/25 00:23:05;;;;;;;;;;;;;;;21.42;100.00;100434.25;3054976;19;1360;-49
2022/08/25 00:24:12;;;;;;;;;;;;;;;21.43;100.00;100439.53;3054612;19;1298;-49
2022/08/25 00:25:14;;;;;;;;;;;;;;;21.41;100.00;100435.28;3054749;19;1153;-50
2022/08/25 00:26:18;;;;;;;;;;;;;;;21.42;100.00;100426.13;3055332;19;1173;-49
2022/08/25 00:27:23;;;;;;;;;;;;;;;21.40;100.00;100429.00;3055220;19;1173;-50
2022/08/25 00:28:25;;;;;;;;;;;;;;;21.41;100.00;100422.56;3054866;19;1451;-49
2022/08/25 00:29:30;;;;;;;;;;;;;;;21.42;100.00;100421.53;3055023;19;1277;-48
2022/08/25 00:30:31;;;;;;;;;;;;;;;21.43;100.00;100422.38;3054810;19;1367;-50
2022/08/25 00:31:36;;;;;;;;;;;;;;;21.43;100.00;100427.81;3055322;19;1075;-49
2022/08/25 00:32:39;;;;;;;;;;;;;;;21.42;100.00;100429.69;3055059;19;1048;-49
2022/08/25 00:33:44;;;;;;;;;;;;;;;21.43;100.00;100427.81;3054751;19;1103;-49
2022/08/25 00:34:46;;;;;;;;;;;;;;;21.43;100.00;100417.81;3054783;19;1117;-48
2022/08/25 00:35:51;;;;;;;;;;;;;;;21.43;100.00;100416.97;3055370;19;969;-48
2022/08/25 00:36:53;;;;;;;;;;;;;;;21.42;100.00;100416.09;3050123;19;1145;-49
2022/08/25 00:37:57;;;;;;;;;;;;;;;21.43;100.00;100416.97;3046159;19;1039;-49
2022/08/25 00:38:59;;;;;;;;;;;;;;;21.42;100.00;100421.53;3045143;19;1864;-49
2022/08/25 00:40:04;;;;;;;;;;;;;;;21.43;100.00;100430.53;3047451;19;945;-49
2022/08/25 00:41:06;;;;;;;;;;;;;;;21.43;100.00;100416.97;3048974;19;1191;-48
2022/08/25 00:42:11;;;;;;;;;;;;;;;21.42;100.00;100426.97;3049004;19;1169;-49
2022/08/25 00:43:17;;;;;;;;;;;;;;;21.41;100.00;100427.13;3049085;19;1370;-48
2022/08/25 00:44:21;;;;;;;;;;;;;;;21.41;100.00;100419.00;3052901;19;1199;-49
2022/08/25 00:45:23;;;;;;;;;;;;;;;21.38;100.00;100411.16;3054072;19;1143;-49
2022/08/25 00:46:31;;;;;;;;;;;;;;;21.39;100.00;100427.28;3054856;19;998;-48
2022/08/25 00:47:33;;;;;;;;;;;;;;;21.40;100.00;100411.84;3055000;19;1185;-48
2022/08/25 00:48:38;;;;;;;;;;;;;;;21.40;100.00;100417.28;3054338;19;1361;-49
2022/08/25 00:49:53;;;;;;;;;;;;;;;21.39;100.00;100421.88;3052627;19;1914;-49
2022/08/25 00:50:55;;;;;;;;;;;;;;;21.39;100.00;100418.28;3053120;19;1593;-48
2022/08/25 00:52:03;;;;;;;;;;;;;;;21.39;100.00;100415.59;3056742;19;1159;-49
2022/08/25 00:53:05;;;;;;;;;;;;;;;21.39;100.00;100407.44;3057358;19;1066;-49
2022/08/25 00:54:10;;;;;;;;;;;;;;;21.39;100.00;100407.44;3057133;19;1075;-49
2022/08/25 00:55:16;;;;;;;;;;;;;;;21.37;100.00;100404.06;3057440;19;1335;-49
2022/08/25 00:56:21;;;;;;;;;;;;;;;21.38;100.00;100408.44;3057200;19;1168;-50
2022/08/25 00:57:27;;;;;;;;;;;;;;;21.37;100.00;100402.19;3056574;19;1070;-48
2022/08/25 00:58:38;;;;;;;;;;;;;;;21.38;100.00;100408.44;3057146;19;1136;-49
2022/08/25 00:59:43;;;;;;;;;;;;;;;21.33;100.00;100399.97;3049924;19;1130;-49
2022/08/25 01:00:47;;;;;;;;;;;;;;;21.32;100.00;100398.28;3050601;19;1165;-49
2022/08/25 01:01:52;;;;;;;;;;;;;;;21.33;100.00;100394.53;3051087;19;1309;-49
2022/08/25 01:02:56;;;;;;;;;;;;;;;21.32;100.00;100387.41;3053238;19;1001;-48
2022/08/25 01:04:01;;;;;;;;;;;;;;;21.30;100.00;100392.16;3051683;19;1157;-49
2022/08/25 01:05:03;;;;;;;;;;;;;;;21.30;100.00;100387.56;3052009;19;1137;-49
2022/08/25 01:06:09;;;;;;;;;;;;;;;21.29;100.00;100380.44;3053275;19;1248;-49
2022/08/25 01:07:11;;;;;;;;;;;;;;;21.30;100.00;100384.00;3056931;19;1152;-48
2022/08/25 01:08:21;;;;;;;;;;;;;;;21.31;100.00;100374.84;3056473;19;1161;-49
2022/08/25 01:09:23;;;;;;;;;;;;;;;21.28;100.00;100377.91;3057223;19;1096;-48
2022/08/25 01:10:28;;;;;;;;;;;;;;;21.29;100.00;100382.31;3057109;19;1019;-49
2022/08/25 01:11:29;;;;;;;;;;;;;;;21.28;100.00;100372.47;3057051;19;1220;-49
2022/08/25 01:12:34;;;;;;;;;;;;;;;21.28;100.00;100372.47;3056553;19;1751;-49
2022/08/25 01:13:38;;;;;;;;;;;;;;;21.22;100.00;100359.56;3057903;19;1123;-49
2022/08/25 01:14:43;;;;;;;;;;;;;;;21.28;100.00;100378.75;3057560;19;1643;-48
2022/08/25 01:15:45;;;;;;;;;;;;;;;21.25;100.00;100370.09;3057190;19;1201;-49
2022/08/25 01:16:51;;;;;;;;;;;;;;;21.26;100.00;100374.50;3056854;19;1050;-49
2022/08/25 01:17:55;;;;;;;;;;;;;;;21.25;100.00;100370.09;3056660;19;1011;-49
2022/08/25 01:18:59;;;;;;;;;;;;;;;21.25;100.00;100370.09;3057556;19;1871;-50
2022/08/25 01:20:01;;;;;;;;;;;;;;;21.30;100.00;100356.88;3057540;19;1039;-49
2022/08/25 01:21:06;;;;;;;;;;;;;;;21.31;100.00;100364.00;3057460;19;1036;-48
2022/08/25 01:22:10;;;;;;;;;;;;;;;21.34;100.00;100360.94;3050502;19;1233;-49
2022/08/25 01:23:15;;;;;;;;;;;;;;;21.36;100.00;100372.50;3049468;19;1337;-49
2022/08/25 01:24:20;;;;;;;;;;;;;;;21.37;100.00;100368.78;3049589;19;1021;-48
2022/08/25 01:25:41;;;;;;;;;;;;;;;21.38;100.00;100371.28;3052436;19;1096;-49
2022/08/25 01:26:43;;;;;;;;;;;;;;;21.38;100.00;100365.00;3051458;19;1028;-49
2022/08/25 01:27:47;;;;;;;;;;;;;;;21.38;100.00;100360.44;3051507;19;948;-49
2022/08/25 01:30:09;;;;;;;;;;;;;;;21.40;100.00;100365.69;3057424;19;1033;-49
2022/08/25 01:31:11;;;;;;;;;;;;;;;21.42;100.00;100360.97;3057408;19;927;-49
2022/08/25 01:32:27;;;;;;;;;;;;;;;21.39;100.00;100358.56;3057455;19;1036;-49
2022/08/25 01:33:29;;;;;;;;;;;;;;;21.40;100.00;100362.97;3057361;19;900;-49
2022/08/25 01:34:34;;;;;;;;;;;;;;;21.42;100.00;100358.25;3057464;19;999;-48
2022/08/25 01:35:37;;;;;;;;;;;;;;;21.41;100.00;100364.69;3057484;19;900;-49
2022/08/25 01:36:42;;;;;;;;;;;;;;;21.45;100.00;100349.78;3057518;19;936;-48
2022/08/25 01:37:44;;;;;;;;;;;;;;;21.47;100.00;100361.31;3057329;19;1370;-49
2022/08/25 01:38:48;;;;;;;;;;;;;;;21.49;100.00;100357.41;3056910;19;1107;-49
2022/08/25 01:39:53;;;;;;;;;;;;;;;21.48;100.00;100354.88;3056208;19;2307;-49
2022/08/25 01:40:55;;;;;;;;;;;;;;;21.50;100.00;100352.81;3057833;19;1091;-49
2022/08/25 01:42:01;;;;;;;;;;;;;;;21.49;100.00;100357.41;3056843;19;1016;-49
2022/08/25 01:43:06;;;;;;;;;;;;;;;21.53;100.00;100355.19;3056768;19;1007;-49
2022/08/25 01:44:10;;;;;;;;;;;;;;;21.55;100.00;100364.03;3051245;19;1000;-50
2022/08/25 01:45:17;;;;;;;;;;;;;;;21.56;100.00;100353.00;3049726;19;960;-49
2022/08/25 01:46:22;;;;;;;;;;;;;;;21.59;100.00;100359.13;3049837;19;1008;-49
2022/08/25 01:47:24;;;;;;;;;;;;;;;21.57;100.00;100353.84;3051203;19;945;-49
2022/08/25 01:48:28;;;;;;;;;;;;;;;21.57;100.00;100359.28;3052501;19;1027;-48
2022/08/25 01:49:31;;;;;;;;;;;;;;;21.59;100.00;100357.25;3052546;19;1324;-48
2022/08/25 01:50:36;;;;;;;;;;;;;;;21.59;100.00;100359.97;3052024;19;1228;-49
2022/08/25 01:51:43;;;;;;;;;;;;;;;21.60;100.00;100364.38;3056136;19;1019;-50
2022/08/25 01:52:57;;;;;;;;;;;;;;;21.61;100.00;100349.78;3056674;19;1276;-48
2022/08/25 01:53:58;;;;;;;;;;;;;;;21.63;100.00;100358.59;3056514;19;970;-48
2022/08/25 01:55:03;;;;;;;;;;;;;;;21.56;100.00;100346.72;3057107;19;1076;-48
2022/08/25 01:56:10;;;;;;;;;;;;;;;21.64;100.00;100354.88;3057289;19;1057;-49
2022/08/25 01:57:14;;;;;;;;;;;;;;;21.65;100.00;100356.56;3057450;19;1174;-49
2022/08/25 01:58:17;;;;;;;;;;;;;;;21.67;100.00;100354.53;3056580;19;1175;-49
2022/08/25 01:59:22;;;;;;;;;;;;;;;21.63;100.00;100353.16;3057122;19;1050;-48
2022/08/25 02:00:24;;;;;;;;;;;;;;;21.67;100.00;100357.25;3054757;19;1845;-49
2022/08/25 02:01:29;;;;;;;;;;;;;;;21.68;100.00;100356.25;3056477;19;1179;-49
2022/08/25 02:02:31;;;;;;;;;;;;;;;21.68;100.00;100356.25;3056591;19;1086;-48
2022/08/25 02:03:39;;;;;;;;;;;;;;;21.67;100.00;100354.53;3056878;19;946;-49
2022/08/25 02:04:43;;;;;;;;;;;;;;;21.67;100.00;100359.13;3057622;19;932;-48
2022/08/25 02:05:47;;;;;;;;;;;;;;;21.70;100.00;100354.22;3056740;19;1112;-49
2022/08/25 02:06:49;;;;;;;;;;;;;;;21.73;100.00;100366.59;3049933;19;1221;-49
2022/08/25 02:07:54;;;;;;;;;;;;;;;21.74;100.00;100366.41;3049990;19;1210;-49
2022/08/25 02:08:57;;;;;;;;;;;;;;;21.75;100.00;100362.69;3049779;19;1315;-49
2022/08/25 02:10:03;;;;;;;;;;;;;;;21.76;100.00;100364.38;3051804;19;947;-48
2022/08/25 02:11:05;;;;;;;;;;;;;;;21.76;100.00;100364.38;3052164;19;968;-49
2022/08/25 02:12:11;;;;;;;;;;;;;;;21.75;100.00;100367.25;3051562;19;992;-49
2022/08/25 02:13:12;;;;;;;;;;;;;;;21.77;100.00;100367.94;3050616;19;1028;-49
2022/08/25 02:14:18;;;;;;;;;;;;;;;21.74;100.00;100352.81;3057402;19;1055;-49
2022/08/25 02:15:20;;;;;;;;;;;;;;;21.76;100.00;100353.50;3056932;19;1080;-49
2022/08/25 02:16:27;;;;;;;;;;;;;;;21.75;100.00;100354.53;3056953;19;1161;-49
2022/08/25 02:17:29;;;;;;;;;;;;;;;21.77;100.00;100354.38;3055605;19;956;-48
2022/08/25 02:18:33;;;;;;;;;;;;;;;21.74;100.00;100360.97;3055712;19;1778;-50
2022/08/25 02:19:35;;;;;;;;;;;;;;;21.76;100.00;100353.50;3057184;19;1118;-50
2022/08/25 02:20:40;;;;;;;;;;;;;;;21.75;100.00;100357.25;3055597;19;1834;-48
2022/08/25 02:21:42;;;;;;;;;;;;;;;21.77;100.00;100348.94;3055553;19;1237;-49
2022/08/25 02:22:47;;;;;;;;;;;;;;;21.74;100.00;100347.41;3055809;19;958;-49
2022/08/25 02:23:57;;;;;;;;;;;;;;;21.75;100.00;100354.53;3056664;19;1034;-49
2022/08/25 02:25:04;;;;;;;;;;;;;;;21.74;100.00;100358.25;3056665;19;1202;-50
2022/08/25 02:26:06;;;;;;;;;;;;;;;21.74;100.00;100355.53;3056355;19;1065;-49
2022/08/25 02:27:11;;;;;;;;;;;;;;;21.74;100.00;100354.69;3056718;19;1045;-49
2022/08/25 02:28:13;;;;;;;;;;;;;;;21.74;100.00;100355.53;3057199;19;1167;-48
2022/08/25 02:29:18;;;;;;;;;;;;;;;21.74;100.00;100350.13;3049471;19;976;-49
2022/08/25 02:30:20;;;;;;;;;;;;;;;21.72;100.00;100352.19;3049536;19;1003;-48
2022/08/25 02:31:25;;;;;;;;;;;;;;;21.73;100.00;100353.03;3048919;19;1182;-49
2022/08/25 02:32:27;;;;;;;;;;;;;;;21.73;100.00;100356.59;3051045;19;900;-49
2022/08/25 02:33:31;;;;;;;;;;;;;;;21.73;100.00;100359.31;3051270;19;924;-49
2022/08/25 02:34:34;;;;;;;;;;;;;;;21.74;100.00;100360.97;3051723;19;1028;-49
2022/08/25 02:35:38;;;;;;;;;;;;;;;21.75;100.00;100353.69;3050951;19;1421;-49
2022/08/25 02:36:41;;;;;;;;;;;;;;;21.72;100.00;100363.03;3056690;19;1007;-49
2022/08/25 02:37:46;;;;;;;;;;;;;;;21.73;100.00;100353.03;3056785;19;1620;-49
2022/08/25 02:38:48;;;;;;;;;;;;;;;21.74;100.00;100358.25;3055696;19;1192;-49
2022/08/25 02:39:52;;;;;;;;;;;;;;;21.73;100.00;100348.44;3054960;19;1240;-49
2022/08/25 02:40:58;;;;;;;;;;;;;;;21.74;100.00;100351.97;3055699;19;1849;-49
2022/08/25 02:42:02;;;;;;;;;;;;;;;21.74;100.00;100350.13;3055209;19;1304;-48
2022/08/25 02:43:04;;;;;;;;;;;;;;;21.73;100.00;100363.88;3056520;19;1188;-49
2022/08/25 02:44:09;;;;;;;;;;;;;;;21.72;100.00;100357.59;3055358;19;1409;-49
2022/08/25 02:45:11;;;;;;;;;;;;;;;21.73;100.00;100348.44;3055572;19;1142;-49
2022/08/25 02:46:16;;;;;;;;;;;;;;;21.75;100.00;100351.81;3055143;19;979;-49
2022/08/25 02:47:18;;;;;;;;;;;;;;;21.76;100.00;100348.09;3055729;19;894;-49
2022/08/25 02:48:30;;;;;;;;;;;;;;;21.76;100.00;100349.94;3056193;19;935;-49
2022/08/25 02:49:32;;;;;;;;;;;;;;;21.77;100.00;100359.78;3056357;19;973;-49
2022/08/25 02:50:36;;;;;;;;;;;;;;;21.77;100.00;100349.78;3056368;19;945;-49
2022/08/25 02:51:38;;;;;;;;;;;;;;;21.76;100.00;100350.78;3050199;19;1069;-50
2022/08/25 02:52:43;;;;;;;;;;;;;;;21.77;100.00;100348.94;3048887;19;1268;-49
2022/08/25 02:53:45;;;;;;;;;;;;;;;21.76;100.00;100339.94;3048896;19;1128;-49
2022/08/25 02:54:50;;;;;;;;;;;;;;;21.76;100.00;100348.09;3050406;19;1491;-48
2022/08/25 02:55:52;;;;;;;;;;;;;;;21.75;100.00;100349.09;3051624;19;974;-49
2022/08/25 02:56:56;;;;;;;;;;;;;;;21.77;100.00;100344.34;3051125;19;958;-48
2022/08/25 02:57:58;;;;;;;;;;;;;;;21.75;100.00;100343.66;3051201;19;1025;-49
2022/08/25 02:59:03;;;;;;;;;;;;;;;21.75;100.00;100345.53;3055372;19;1193;-49
2022/08/25 03:00:05;;;;;;;;;;;;;;;21.74;100.00;100350.13;3056768;19;992;-50
2022/08/25 03:01:10;;;;;;;;;;;;;;;21.72;100.00;100341.31;3055212;19;1865;-49
2022/08/25 03:02:13;;;;;;;;;;;;;;;21.72;100.00;100345.88;3056384;19;1113;-49
2022/08/25 03:03:18;;;;;;;;;;;;;;;21.70;100.00;100351.50;3056424;19;974;-50
2022/08/25 03:04:19;;;;;;;;;;;;;;;21.69;100.00;100341.63;3056247;19;1044;-49
2022/08/25 03:05:24;;;;;;;;;;;;;;;21.70;100.00;100345.22;3056226;19;1162;-49
2022/08/25 03:06:26;;;;;;;;;;;;;;;21.69;100.00;100341.63;3055958;19;1189;-49
2022/08/25 03:07:31;;;;;;;;;;;;;;;21.69;100.00;100347.06;3055742;19;1095;-49
2022/08/25 03:08:36;;;;;;;;;;;;;;;21.70;100.00;100337.06;3056006;19;1186;-49
2022/08/25 03:09:40;;;;;;;;;;;;;;;21.70;100.00;100343.34;3056566;19;1059;-49
2022/08/25 03:10:42;;;;;;;;;;;;;;;21.69;100.00;100341.63;3056252;19;990;-49
2022/08/25 03:11:47;;;;;;;;;;;;;;;21.67;100.00;100346.38;3055651;19;985;-49
2022/08/25 03:12:49;;;;;;;;;;;;;;;21.68;100.00;100334.50;3055585;19;1004;-49
2022/08/25 03:13:53;;;;;;;;;;;;;;;21.70;100.00;100343.34;3051744;19;1064;-49
2022/08/25 03:14:55;;;;;;;;;;;;;;;21.70;100.00;100342.50;3047725;19;934;-48
2022/08/25 03:16:00;;;;;;;;;;;;;;;21.68;100.00;100330.94;3048552;19;1152;-50
2022/08/25 03:17:04;;;;;;;;;;;;;;;21.68;100.00;100339.94;3048460;19;862;-49
2022/08/25 03:18:13;;;;;;;;;;;;;;;21.67;100.00;100330.09;3050239;19;981;-50
2022/08/25 03:19:15;;;;;;;;;;;;;;;21.66;100.00;100325.69;3050990;19;937;-50
2022/08/25 03:20:20;;;;;;;;;;;;;;;21.68;100.00;100323.63;3050850;19;1703;-49
2022/08/25 03:21:21;;;;;;;;;;;;;;;21.69;100.00;100329.94;3053938;19;1862;-49
2022/08/25 03:22:26;;;;;;;;;;;;;;;21.68;100.00;100329.06;3055663;19;971;-50
2022/08/25 03:23:29;;;;;;;;;;;;;;;21.69;100.00;100330.78;3055960;19;953;-49
2022/08/25 03:24:33;;;;;;;;;;;;;;;21.68;100.00;100334.50;3055940;19;1144;-50
2022/08/25 03:26:55;;;;;;;;;;;;;;;21.69;100.00;100330.78;3056171;19;1047;-49
2022/08/25 03:27:57;;;;;;;;;;;;;;;21.71;100.00;100333.31;3056115;19;1199;-48
2022/08/25 03:29:03;;;;;;;;;;;;;;;21.72;100.00;100330.44;3054690;19;1410;-49
2022/08/25 03:30:06;;;;;;;;;;;;;;;21.72;100.00;100338.59;3054769;19;1127;-49
2022/08/25 03:31:10;;;;;;;;;;;;;;;21.73;100.00;100334.88;3055862;19;1129;-50
2022/08/25 03:32:12;;;;;;;;;;;;;;;21.74;100.00;100339.25;3055998;19;893;-49
2022/08/25 03:33:17;;;;;;;;;;;;;;;21.71;100.00;100334.19;3056067;19;1308;-49
2022/08/25 03:34:20;;;;;;;;;;;;;;;21.75;100.00;100329.22;3055518;19;927;-48
2022/08/25 03:35:24;;;;;;;;;;;;;;;21.73;100.00;100329.44;3055773;19;1081;-49
2022/08/25 03:36:29;;;;;;;;;;;;;;;21.75;100.00;100334.66;3050305;19;1039;-49
2022/08/25 03:37:31;;;;;;;;;;;;;;;21.74;100.00;100335.69;3048940;19;1351;-49
2022/08/25 03:38:37;;;;;;;;;;;;;;;21.74;100.00;100339.25;3048610;19;1056;-49
2022/08/25 03:39:39;;;;;;;;;;;;;;;21.73;100.00;100340.28;3050084;19;1247;-49
2022/08/25 03:40:43;;;;;;;;;;;;;;;21.73;100.00;100340.28;3050935;19;1032;-49
2022/08/25 03:41:48;;;;;;;;;;;;;;;21.75;100.00;100327.38;3049155;19;1864;-49
2022/08/25 03:42:50;;;;;;;;;;;;;;;21.76;100.00;100329.06;3050610;19;1034;-48
2022/08/25 03:43:55;;;;;;;;;;;;;;;21.77;100.00;100338.91;3055215;19;1061;-49
2022/08/25 03:44:57;;;;;;;;;;;;;;;21.78;100.00;100340.63;3055580;19;1438;-49
2022/08/25 03:46:01;;;;;;;;;;;;;;;21.78;100.00;100337.91;3055629;19;1116;-49
2022/08/25 03:47:06;;;;;;;;;;;;;;;21.79;100.00;100342.31;3055667;19;1177;-48
2022/08/25 03:48:08;;;;;;;;;;;;;;;21.79;100.00;100334.16;3055780;19;949;-48
2022/08/25 03:49:14;;;;;;;;;;;;;;;21.81;100.00;100339.44;3055438;19;1250;-49
2022/08/25 03:50:16;;;;;;;;;;;;;;;21.81;100.00;100340.28;3054975;19;1768;-49
2022/08/25 03:51:22;;;;;;;;;;;;;;;21.83;100.00;100337.41;3055367;19;969;-49
2022/08/25 03:52:23;;;;;;;;;;;;;;;21.83;100.00;100330.09;3055568;19;963;-50
2022/08/25 03:53:28;;;;;;;;;;;;;;;21.87;100.00;100342.31;3054712;19;1044;-50
2022/08/25 03:54:30;;;;;;;;;;;;;;;21.87;100.00;100339.59;3054370;19;1729;-48
2022/08/25 03:55:34;;;;;;;;;;;;;;;21.89;100.00;100337.56;3054861;19;1172;-50
2022/08/25 03:56:37;;;;;;;;;;;;;;;21.89;100.00;100334.84;3055401;19;902;-49
2022/08/25 03:57:41;;;;;;;;;;;;;;;21.91;100.00;100337.38;3055957;19;1196;-49
2022/08/25 03:58:43;;;;;;;;;;;;;;;21.91;100.00;100343.66;3050308;19;1291;-49
2022/08/25 03:59:48;;;;;;;;;;;;;;;21.91;100.00;100334.66;3046840;19;1087;-49
2022/08/25 04:00:49;;;;;;;;;;;;;;;21.90;100.00;100331.09;3047129;19;1736;-49
2022/08/25 04:01:54;;;;;;;;;;;;;;;21.90;100.00;100341.97;3048367;19;1861;-49
2022/08/25 04:02:56;;;;;;;;;;;;;;;21.90;100.00;100336.53;3050395;19;2311;-49
2022/08/25 04:04:00;;;;;;;;;;;;;;;21.90;100.00;100333.81;3050763;19;1788;-49
2022/08/25 04:05:03;;;;;;;;;;;;;;;21.89;100.00;100342.13;3050196;19;1051;-49
2022/08/25 04:06:07;;;;;;;;;;;;;;;21.89;100.00;100351.13;3052548;19;1194;-49
2022/08/25 04:07:09;;;;;;;;;;;;;;;21.91;100.00;100340.94;3054602;19;968;-49
2022/08/25 04:08:14;;;;;;;;;;;;;;;21.91;100.00;100346.38;3055507;19;1300;-50
2022/08/25 04:09:15;;;;;;;;;;;;;;;21.92;100.00;100342.66;3055115;19;1050;-49
2022/08/25 04:10:20;;;;;;;;;;;;;;;21.93;100.00;100338.91;3055686;19;1071;-48
2022/08/25 04:11:22;;;;;;;;;;;;;;;21.95;100.00;100351.47;3055455;19;1012;-48
2022/08/25 04:12:26;;;;;;;;;;;;;;;21.97;100.00;100338.59;3055176;19;1225;-49
2022/08/25 04:13:28;;;;;;;;;;;;;;;21.99;100.00;100341.97;3055425;19;1106;-49
2022/08/25 04:14:33;;;;;;;;;;;;;;;22.02;100.00;100344.38;3055570;19;1121;-49
2022/08/25 04:15:35;;;;;;;;;;;;;;;22.03;100.00;100355.06;3055490;19;1222;-49
2022/08/25 04:16:39;;;;;;;;;;;;;;;22.05;100.00;100344.03;3054146;19;1011;-50
2022/08/25 04:17:41;;;;;;;;;;;;;;;22.06;100.00;100357.44;3053544;19;1802;-49
2022/08/25 04:18:46;;;;;;;;;;;;;;;22.09;100.00;100343.53;3054834;19;1624;-48
2022/08/25 04:19:48;;;;;;;;;;;;;;;22.11;100.00;100346.03;3053852;19;1169;-49
2022/08/25 04:20:53;;;;;;;;;;;;;;;22.13;100.00;100344.84;3052338;19;959;-50
2022/08/25 04:21:55;;;;;;;;;;;;;;;22.15;100.00;100352.84;3045868;19;1842;-49
2022/08/25 04:23:01;;;;;;;;;;;;;;;22.16;100.00;100354.53;3047251;19;1758;-49
2022/08/25 04:24:03;;;;;;;;;;;;;;;22.19;100.00;100348.78;3047045;19;1255;-49
2022/08/25 04:25:08;;;;;;;;;;;;;;;22.21;100.00;100353.03;3049041;19;1879;-49
2022/08/25 04:26:15;;;;;;;;;;;;;;;22.24;100.00;100370.84;3049733;19;1245;-49
2022/08/25 04:27:20;;;;;;;;;;;;;;;22.24;100.00;100358.09;3050003;19;1098;-50
2022/08/25 04:28:21;;;;;;;;;;;;;;;22.27;100.00;100362.34;3052246;19;1130;-50
2022/08/25 04:29:26;;;;;;;;;;;;;;;22.31;100.00;100369.13;3055086;19;1040;-51
2022/08/25 04:30:28;;;;;;;;;;;;;;;22.33;100.00;100369.81;3054603;19;890;-49
2022/08/25 04:31:32;;;;;;;;;;;;;;;22.36;100.00;100366.72;3054906;19;975;-49
2022/08/25 04:32:35;;;;;;;;;;;;;;;22.38;100.00;100370.13;3054895;19;1134;-49
2022/08/25 04:33:40;;;;;;;;;;;;;;;22.40;100.00;100369.97;3055372;19;943;-49
2022/08/25 04:34:42;;;;;;;;;;;;;;;22.43;100.00;100373.19;3054804;19;1739;-49
2022/08/25 04:35:50;;;;;;;;;;;;;;;22.48;100.00;100373.50;3054683;19;965;-49
2022/08/25 04:36:52;;;;;;;;;;;;;;;22.51;100.00;100386.75;3055346;19;1038;-49
2022/08/25 04:37:56;;;;;;;;;;;;;;;22.55;100.00;100387.25;3054656;19;988;-49
2022/08/25 04:38:58;;;;;;;;;;;;;;;22.58;100.00;100393.19;3054691;19;881;-49
2022/08/25 04:40:03;;;;;;;;;;;;;;;22.59;100.00;100392.16;3055036;19;1007;-49
2022/08/25 04:41:06;;;;;;;;;;;;;;;22.61;100.00;100389.28;3054922;19;1102;-48
2022/08/25 04:42:10;;;;;;;;;;;;;;;22.64;100.00;100389.78;3054257;19;1829;-48
2022/08/25 04:43:12;;;;;;;;;;;;;;;22.67;100.00;100395.91;3051757;19;1046;-51
2022/08/25 04:44:16;;;;;;;;;;;;;;;22.70;100.00;100392.84;3048426;19;1243;-49
2022/08/25 04:45:18;;;;;;;;;;;;;;;22.72;100.00;100409.81;3047656;19;1127;-50
2022/08/25 04:46:24;;;;;;;;;;;;;;;22.74;100.00;100396.88;3047530;19;1221;-49
2022/08/25 04:47:29;;;;;;;;;;;;;;;22.77;100.00;100405.59;3050062;19;1107;-50
2022/08/25 04:48:31;;;;;;;;;;;;;;;22.80;100.00;100401.69;3050299;19;964;-49
2022/08/25 04:49:36;;;;;;;;;;;;;;;22.82;100.00;100408.63;3049855;19;1785;-50
2022/08/25 04:50:38;;;;;;;;;;;;;;;22.85;100.00;100400.09;3050784;19;1281;-49
2022/08/25 04:51:43;;;;;;;;;;;;;;;22.84;100.00;100403.00;3053754;19;1051;-49
2022/08/25 04:52:45;;;;;;;;;;;;;;;22.88;100.00;100415.25;3054497;19;1194;-48
2022/08/25 04:53:49;;;;;;;;;;;;;;;22.84;100.00;100400.28;3055058;19;1140;-49
2022/08/25 04:54:51;;;;;;;;;;;;;;;22.89;100.00;100397.91;3054969;19;1068;-50
2022/08/25 04:55:56;;;;;;;;;;;;;;;22.92;100.00;100411.16;3054604;19;1069;-48
2022/08/25 04:57:06;;;;;;;;;;;;;;;22.96;100.00;100390.72;3055175;19;1144;-50
2022/08/25 04:58:08;;;;;;;;;;;;;;;23.02;100.00;100409.06;3055199;19;968;-49
2022/08/25 04:59:20;;;;;;;;;;;;;;;23.06;100.00;100402.25;3054929;19;1183;-49
2022/08/25 05:00:21;;;;;;;;;;;;;;;23.10;100.00;100409.03;3054635;19;1197;-50
2022/08/25 05:01:26;;;;;;;;;;;;;;;23.10;100.00;100416.34;3054603;19;1108;-49
2022/08/25 05:02:28;;;;;;;;;;;;;;;23.13;100.00;100430.47;3054094;19;1863;-49
2022/08/25 05:03:33;;;;;;;;;;;;;;;23.14;100.00;100420.41;3055165;19;1239;-49
2022/08/25 05:04:38;;;;;;;;;;;;;;;23.10;100.00;100414.47;3055234;19;953;-49
2022/08/25 05:05:40;;;;;;;;;;;;;;;23.20;100.00;100431.44;3051419;19;1519;-50
2022/08/25 05:06:45;;;;;;;;;;;;;;;23.23;100.00;100436.53;3046646;19;1087;-49
2022/08/25 05:07:49;;;;;;;;;;;;;;;23.30;100.00;100436.69;3047040;19;1094;-49
2022/08/25 05:08:51;;;;;;;;;;;;;;;23.32;100.00;100440.91;3044748;19;1752;-50
2022/08/25 05:09:56;;;;;;;;;;;;;;;23.34;100.00;100447.03;3048344;19;1288;-49
2022/08/25 05:10:59;;;;;;;;;;;;;;;23.39;100.00;100451.09;3047009;19;1433;-49
2022/08/25 05:12:07;;;;;;;;;;;;;;;23.40;100.00;100450.94;3049189;19;1199;-50
2022/08/25 05:13:11;;;;;;;;;;;;;;;23.45;100.00;100450.38;3051850;19;1272;-49
2022/08/25 05:14:20;;;;;;;;;;;;;;;23.49;100.00;100457.16;3053303;19;1485;-50
2022/08/25 05:16:45;;;;;;;;;;;;;;;23.67;100.00;100460.47;3054581;19;976;-49
2022/08/25 05:17:47;;;;;;;;;;;;;;;23.78;100.00;100468.28;3054724;19;1098;-49
2022/08/25 05:18:58;;;;;;;;;;;;;;;23.79;100.00;100477.31;3051813;19;1145;-49
2022/08/25 05:20:00;;;;;;;;;;;;;;;23.84;100.00;100483.03;3053633;19;1051;-50
2022/08/25 05:21:05;;;;;;;;;;;;;;;23.96;100.00;100481.59;3053312;19;1973;-48
2022/08/25 05:22:10;;;;;;;;;;;;;;;24.09;100.00;100498.22;3052860;19;1752;-49
2022/08/25 05:23:12;;;;;;;;;;;;;;;24.20;100.00;100494.19;3052438;19;1840;-49
2022/08/25 05:24:17;;;;;;;;;;;;;;;24.33;100.00;100505.38;3052511;19;1453;-49
2022/08/25 05:25:21;;;;;;;;;;;;;;;24.41;100.00;100508.88;3053568;19;1500;-49
2022/08/25 05:26:24;;;;;;;;;;;;;;;24.52;100.00;100514.94;3052910;19;1035;-49
2022/08/25 05:27:29;;;;;;;;;;;;;;;24.60;100.00;100523.06;3052288;19;1522;-49
2022/08/25 05:28:31;;;;;;;;;;;;;;;24.69;100.00;100539.19;3046299;19;1055;-48
2022/08/25 05:29:35;;;;;;;;;;;;;;;24.75;100.00;100543.88;3045621;19;2225;-49
2022/08/25 05:30:38;;;;;;;;;;;;;;;24.84;100.00;100547.41;3045826;19;1460;-49
2022/08/25 05:31:43;;;;;;;;;;;;;;;24.94;100.00;100552.63;3046921;19;1303;-49
2022/08/25 05:32:50;;;;;;;;;;;;;;;25.06;100.00;100567.50;3047376;19;1375;-50
2022/08/25 05:33:55;;;;;;;;;;;;;;;25.08;100.00;100573.66;3047272;19;1590;-49